Time;durP1;ratioP1;P1;durP2;ratioP2;P2;SDS_P1;SDS_P2;PMS_P1;PMS_P2;Temp;Humidity;BMP_temperature;BMP_pressure;BME280_temperature;BME280_humidity;BME280_pressure;Samples;Min_cycle;Max_cycle;Signal;HPM_P1;HPM_P2
2021/06/05 00:02:27;;;;;;;6.90;3.47;;;13.70;99.90;;;;;;5072708;28;20056;-62
2021/06/05 00:04:57;;;;;;;8.73;4.05;;;13.80;99.90;;;;;;5072762;28;20039;-63
2021/06/05 00:07:24;;;;;;;11.05;4.00;;;13.80;99.90;;;;;;5072876;28;20101;-62
2021/06/05 00:09:50;;;;;;;7.97;3.55;;;13.70;99.90;;;;;;5070753;28;20462;-61
2021/06/05 00:12:19;;;;;;;10.40;3.63;;;13.70;99.90;;;;;;5078938;28;20041;-64
2021/06/05 00:14:45;;;;;;;7.78;3.53;;;13.60;99.90;;;;;;5067468;28;20039;-61
2021/06/05 00:17:11;;;;;;;13.65;4.20;;;13.60;99.90;;;;;;5079900;28;20032;-61
2021/06/05 00:19:37;;;;;;;9.88;3.53;;;13.60;99.90;;;;;;5081793;28;20028;-60
2021/06/05 00:22:03;;;;;;;6.82;3.20;;;13.60;99.90;;;;;;5077131;28;20032;-63
2021/06/05 00:24:29;;;;;;;11.27;3.33;;;13.50;99.90;;;;;;5072980;28;20079;-63
2021/06/05 00:26:55;;;;;;;8.07;3.10;;;13.60;99.90;;;;;;5078210;28;20048;-63
2021/06/05 00:29:21;;;;;;;9.38;3.58;;;13.60;99.90;;;;;;5076845;28;20050;-60
2021/06/05 00:31:47;;;;;;;8.77;3.70;;;13.60;99.90;;;;;;5070834;28;20555;-62
2021/06/05 00:34:13;;;;;;;11.13;3.65;;;13.60;99.90;;;;;;5072875;28;20028;-61
2021/06/05 00:36:39;;;;;;;7.43;3.42;;;13.60;99.90;;;;;;5080910;28;20102;-60
2021/06/05 00:39:07;;;;;;;6.57;3.60;;;13.60;99.90;;;;;;5079206;28;20093;-61
2021/06/05 00:41:33;;;;;;;12.27;3.92;;;13.60;99.90;;;;;;5079584;28;20036;-62
2021/06/05 00:44:03;;;;;;;11.05;3.65;;;13.60;99.90;;;;;;5078911;28;20097;-62
2021/06/05 00:46:30;;;;;;;8.45;3.75;;;13.60;99.90;;;;;;5088867;28;20526;-61
2021/06/05 00:48:57;;;;;;;7.10;3.60;;;13.60;99.90;;;;;;5070591;28;20039;-61
2021/06/05 00:51:34;;;;;;;7.95;4.38;;;13.60;99.90;;;;;;5073028;28;20036;-62
2021/06/05 00:54:01;;;;;;;11.57;4.75;;;13.50;99.90;;;;;;5082513;28;20035;-63
2021/06/05 00:56:27;;;;;;;9.70;3.97;;;13.60;99.90;;;;;;5073567;28;20032;-62
2021/06/05 00:58:53;;;;;;;12.73;4.00;;;13.60;99.90;;;;;;5076530;28;20024;-63
2021/06/05 01:01:22;;;;;;;8.52;3.90;;;13.70;99.90;;;;;;5068426;28;20077;-62
2021/06/05 01:03:50;;;;;;;13.00;4.38;;;13.70;99.90;;;;;;5069758;28;20390;-62
2021/06/05 01:06:21;;;;;;;12.05;4.03;;;13.70;99.90;;;;;;5074661;28;20032;-63
2021/06/05 01:08:47;;;;;;;10.13;4.20;;;13.70;99.90;;;;;;5075420;28;20029;-63
2021/06/05 01:11:30;;;;;;;10.40;4.03;;;13.70;99.90;;;;;;5076943;28;20385;-60
2021/06/05 01:14:36;;;;;;;9.77;4.53;;;13.70;99.90;;;;;;5075442;28;20526;-62
2021/06/05 01:17:24;;;;;;;8.80;4.05;;;13.70;99.90;;;;;;5060295;28;20059;-64
2021/06/05 01:20:05;;;;;;;11.60;4.20;;;13.70;99.90;;;;;;5064250;28;20375;-61
2021/06/05 01:22:52;;;;;;;9.30;4.65;;;13.60;99.90;;;;;;5084237;28;20398;-61
2021/06/05 01:25:36;;;;;;;12.23;4.70;;;13.60;99.90;;;;;;5071973;28;20493;-62
2021/06/05 01:28:20;;;;;;;7.43;4.13;;;13.60;99.90;;;;;;5062184;28;20052;-63
2021/06/05 01:30:50;;;;;;;9.13;4.70;;;13.70;99.90;;;;;;5071159;28;20490;-61
2021/06/05 01:33:19;;;;;;;16.25;5.00;;;13.70;99.90;;;;;;5075869;28;20487;-60
2021/06/05 01:35:45;;;;;;;12.27;4.78;;;13.70;99.90;;;;;;5065606;28;20026;-62
2021/06/05 01:38:13;;;;;;;10.02;4.72;;;13.70;99.90;;;;;;5074780;28;20055;-62
2021/06/05 01:40:41;;;;;;;12.05;5.13;;;13.70;99.90;;;;;;5071723;28;20037;-63
2021/06/05 01:43:08;;;;;;;9.43;4.72;;;13.70;99.90;;;;;;5083479;28;20370;-62
2021/06/05 01:45:37;;;;;;;9.93;5.55;;;13.70;99.90;;;;;;5072780;28;20040;-61
2021/06/05 01:48:05;;;;;;;9.48;5.20;;;13.70;99.90;;;;;;5075455;28;20420;-60
2021/06/05 01:50:34;;;;;;;10.68;5.72;;;13.70;99.90;;;;;;5075932;28;20396;-64
2021/06/05 01:53:06;;;;;;;10.60;5.50;;;13.80;99.90;;;;;;5087014;28;20071;-62
2021/06/05 01:55:36;;;;;;;11.05;4.97;;;13.70;99.90;;;;;;5078443;28;20056;-61
2021/06/05 01:58:12;;;;;;;10.60;5.05;;;13.70;99.90;;;;;;5082848;28;20025;-63
2021/06/05 02:00:42;;;;;;;9.48;5.45;;;13.80;99.90;;;;;;5080685;28;20043;-61
2021/06/05 02:03:09;;;;;;;9.73;5.13;;;13.80;99.90;;;;;;5077360;28;20036;-62
2021/06/05 02:05:35;;;;;;;9.50;4.30;;;13.70;99.90;;;;;;5074210;28;20025;-61
2021/06/05 02:08:02;;;;;;;8.10;4.65;;;13.60;99.90;;;;;;5076052;28;20141;-60
2021/06/05 02:10:31;;;;;;;8.40;3.90;;;13.60;99.90;;;;;;5070409;28;20040;-62
2021/06/05 02:12:57;;;;;;;12.90;4.22;;;13.60;99.90;;;;;;5078173;28;20048;-64
2021/06/05 02:15:34;;;;;;;8.73;3.60;;;13.60;99.90;;;;;;5075242;28;20445;-62
2021/06/05 02:18:03;;;;;;;7.00;3.63;;;13.60;99.90;;;;;;5068820;28;20036;-62
2021/06/05 02:20:33;;;;;;;9.13;3.88;;;13.60;99.90;;;;;;5070956;28;20032;-62
2021/06/05 02:23:03;;;;;;;10.20;4.15;;;13.60;99.90;;;;;;5059927;28;20040;-62
2021/06/05 02:25:30;;;;;;;7.18;3.50;;;13.70;99.90;;;;;;5069683;28;20522;-63
2021/06/05 02:28:00;;;;;;;8.10;3.83;;;13.70;99.90;;;;;;5071827;28;20047;-62
2021/06/05 02:30:28;;;;;;;13.45;4.00;;;13.60;99.90;;;;;;5082172;28;20127;-63
2021/06/05 02:32:54;;;;;;;5.82;4.07;;;13.60;99.90;;;;;;5061236;28;20101;-63
2021/06/05 02:35:26;;;;;;;11.70;4.57;;;13.50;99.90;;;;;;5089608;28;20116;-63
2021/06/05 02:37:52;;;;;;;9.05;4.05;;;13.50;99.90;;;;;;5072325;28;20029;-62
2021/06/05 02:40:29;;;;;;;7.97;3.90;;;13.50;99.90;;;;;;5079447;28;20032;-61
2021/06/05 02:42:56;;;;;;;10.05;4.28;;;13.50;99.90;;;;;;5080713;28;20482;-62
2021/06/05 02:45:33;;;;;;;6.85;3.85;;;13.50;99.90;;;;;;5075646;28;20029;-64
2021/06/05 02:48:00;;;;;;;12.02;4.35;;;13.50;99.90;;;;;;5070362;28;20031;-62
2021/06/05 02:50:34;;;;;;;10.77;4.70;;;13.50;99.90;;;;;;5069896;28;20059;-63
2021/06/05 02:53:00;;;;;;;9.48;4.50;;;13.50;99.90;;;;;;5070043;28;20041;-62
2021/06/05 02:55:26;;;;;;;12.50;4.03;;;13.50;99.90;;;;;;5060016;28;20383;-61
2021/06/05 02:57:52;;;;;;;9.20;4.57;;;13.50;99.90;;;;;;5069679;28;20077;-62
2021/06/05 03:00:25;;;;;;;7.47;4.10;;;13.50;99.90;;;;;;5071304;28;20029;-62
2021/06/05 03:02:51;;;;;;;9.88;4.20;;;13.50;99.90;;;;;;5069504;28;20040;-62
2021/06/05 03:05:16;;;;;;;12.85;4.43;;;13.60;99.90;;;;;;5071538;28;20036;-61
2021/06/05 03:07:42;;;;;;;11.32;4.82;;;13.60;99.90;;;;;;5078766;28;20031;-61
2021/06/05 03:10:09;;;;;;;15.07;4.93;;;13.60;99.90;;;;;;5081155;28;20028;-63
2021/06/05 03:12:34;;;;;;;13.27;5.18;;;13.60;99.90;;;;;;5076893;28;20132;-63
2021/06/05 03:15:00;;;;;;;10.77;4.97;;;13.60;99.90;;;;;;5078818;28;20107;-62
2021/06/05 03:17:28;;;;;;;9.70;5.28;;;13.60;99.90;;;;;;5072075;28;20094;-62
2021/06/05 03:19:55;;;;;;;9.57;5.60;;;13.60;99.90;;;;;;5080309;28;20113;-61
2021/06/05 03:22:21;;;;;;;9.63;5.40;;;13.60;99.90;;;;;;5084739;28;20042;-61
2021/06/05 03:24:47;;;;;;;14.55;5.68;;;13.70;99.90;;;;;;5076389;28;20394;-62
2021/06/05 03:27:13;;;;;;;10.05;4.90;;;13.60;99.90;;;;;;5070373;28;20036;-63
2021/06/05 03:29:38;;;;;;;16.83;5.95;;;13.60;99.90;;;;;;5076450;28;20059;-62
2021/06/05 03:32:05;;;;;;;11.20;5.28;;;13.60;99.90;;;;;;5074650;28;20082;-62
2021/06/05 03:34:31;;;;;;;12.25;5.40;;;13.60;99.90;;;;;;5069139;28;20033;-62
2021/06/05 03:36:58;;;;;;;11.80;5.45;;;13.60;99.90;;;;;;5077820;28;20151;-64
2021/06/05 03:39:23;;;;;;;12.52;5.38;;;13.60;99.90;;;;;;5079949;28;20040;-61
2021/06/05 03:41:49;;;;;;;9.23;5.30;;;13.60;99.90;;;;;;5072723;28;20092;-60
2021/06/05 03:44:15;;;;;;;8.65;5.03;;;13.50;99.90;;;;;;5070541;28;20474;-64
2021/06/05 03:46:41;;;;;;;12.98;5.63;;;13.50;99.90;;;;;;5074333;28;20068;-63
2021/06/05 03:49:09;;;;;;;13.70;5.55;;;13.50;99.90;;;;;;5075048;28;20439;-64
2021/06/05 03:51:35;;;;;;;12.25;5.50;;;13.50;99.90;;;;;;5078761;28;20449;-63
2021/06/05 03:54:01;;;;;;;10.82;5.68;;;13.50;99.90;;;;;;5080861;28;20024;-61
2021/06/05 03:56:26;;;;;;;12.65;6.00;;;13.50;99.90;;;;;;5079230;28;20036;-62
2021/06/05 03:58:53;;;;;;;13.55;6.25;;;13.50;99.90;;;;;;5081100;28;20032;-62
2021/06/05 04:01:25;;;;;;;16.98;5.60;;;13.50;99.90;;;;;;5087104;28;20401;-62
2021/06/05 04:03:52;;;;;;;12.88;5.35;;;13.50;99.90;;;;;;5059811;28;20494;-61
2021/06/05 04:06:20;;;;;;;10.25;5.55;;;13.50;99.90;;;;;;5092517;28;20036;-62
2021/06/05 04:08:47;;;;;;;11.30;5.60;;;13.50;99.90;;;;;;5075951;28;20021;-62
2021/06/05 04:11:12;;;;;;;13.57;6.05;;;13.50;99.90;;;;;;5074494;28;20039;-61
2021/06/05 04:13:38;;;;;;;12.65;6.15;;;13.50;99.90;;;;;;5072173;28;20033;-62
2021/06/05 04:16:05;;;;;;;9.35;5.40;;;13.50;99.90;;;;;;5078680;28;20037;-62
2021/06/05 04:18:37;;;;;;;8.85;5.65;;;13.40;99.90;;;;;;5081113;28;20342;-62
2021/06/05 04:21:05;;;;;;;10.60;5.57;;;13.40;99.90;;;;;;5077652;28;20023;-63
2021/06/05 04:23:31;;;;;;;9.85;5.20;;;13.40;99.90;;;;;;5071986;28;20041;-62
2021/06/05 04:25:57;;;;;;;13.38;5.95;;;13.40;99.90;;;;;;5079360;28;20028;-61
2021/06/05 04:28:26;;;;;;;11.52;5.75;;;13.40;99.90;;;;;;5075408;28;20050;-61
2021/06/05 04:30:53;;;;;;;9.02;5.03;;;13.40;99.90;;;;;;5081222;28;20036;-62
2021/06/05 04:33:21;;;;;;;10.40;5.93;;;13.30;99.90;;;;;;5080509;28;20074;-62
2021/06/05 04:35:48;;;;;;;12.50;5.57;;;13.30;99.90;;;;;;5073389;28;20027;-63
2021/06/05 04:38:14;;;;;;;10.00;5.30;;;13.40;99.90;;;;;;5073467;28;20028;-60
2021/06/05 04:40:41;;;;;;;13.80;5.60;;;13.40;99.90;;;;;;5071346;28;20119;-62
2021/06/05 04:43:07;;;;;;;10.57;5.45;;;13.50;99.90;;;;;;5082986;28;20036;-62
2021/06/05 04:45:34;;;;;;;14.18;5.97;;;13.50;99.90;;;;;;5086685;28;20111;-62
2021/06/05 04:48:00;;;;;;;10.77;5.50;;;13.50;99.90;;;;;;5072981;28;20064;-62
2021/06/05 04:50:30;;;;;;;11.00;5.40;;;13.50;99.90;;;;;;5077297;28;20056;-61
2021/06/05 04:52:56;;;;;;;14.70;5.90;;;13.50;99.90;;;;;;5070820;28;20073;-61
2021/06/05 04:55:22;;;;;;;9.90;5.47;;;13.50;99.90;;;;;;5071189;28;20032;-62
2021/06/05 04:57:48;;;;;;;11.10;5.93;;;13.60;99.90;;;;;;5073422;28;20029;-62
2021/06/05 05:00:17;;;;;;;10.48;5.25;;;13.70;99.90;;;;;;5072870;28;20036;-63
2021/06/05 05:02:43;;;;;;;16.00;5.57;;;13.70;99.90;;;;;;5082087;28;20054;-62
2021/06/05 05:05:10;;;;;;;17.83;5.40;;;13.70;99.90;;;;;;5071446;28;20024;-61
2021/06/05 05:07:36;;;;;;;12.52;5.18;;;13.80;99.90;;;;;;5074580;28;20031;-61
2021/06/05 05:10:03;;;;;;;10.98;5.15;;;13.80;99.90;;;;;;5072375;28;20028;-61
2021/06/05 05:12:29;;;;;;;8.30;5.00;;;13.80;99.90;;;;;;5078833;28;20494;-61
2021/06/05 05:14:56;;;;;;;9.88;5.20;;;13.80;99.90;;;;;;5076202;28;20035;-61
2021/06/05 05:17:22;;;;;;;8.95;5.00;;;13.90;99.90;;;;;;5071454;28;20432;-61
2021/06/05 05:19:49;;;;;;;11.55;5.30;;;13.80;99.90;;;;;;5072283;28;20056;-62
2021/06/05 05:22:15;;;;;;;14.75;5.35;;;13.80;99.90;;;;;;5078521;28;20377;-62
2021/06/05 05:24:40;;;;;;;12.55;5.25;;;13.90;99.90;;;;;;5077703;28;20057;-62
2021/06/05 05:27:07;;;;;;;9.95;4.90;;;14.00;99.90;;;;;;5079553;28;20024;-62
2021/06/05 05:29:33;;;;;;;12.77;4.55;;;13.90;99.90;;;;;;5085253;28;20051;-62
2021/06/05 05:31:59;;;;;;;12.15;4.10;;;13.90;99.90;;;;;;5071618;28;20032;-62
2021/06/05 05:34:25;;;;;;;14.65;4.38;;;13.90;99.90;;;;;;5076204;28;20450;-64
2021/06/05 05:36:50;;;;;;;13.55;4.55;;;14.00;99.90;;;;;;5065124;28;20043;-61
2021/06/05 05:39:18;;;;;;;11.18;4.70;;;13.80;99.90;;;;;;5059694;28;20024;-61
2021/06/05 05:41:45;;;;;;;7.88;4.68;;;13.90;99.90;;;;;;5074088;28;20043;-62
2021/06/05 05:44:10;;;;;;;12.95;4.15;;;13.90;99.90;;;;;;5070956;28;20029;-63
2021/06/05 05:46:37;;;;;;;10.40;3.92;;;13.90;99.90;;;;;;5073518;28;20115;-63
2021/06/05 05:49:04;;;;;;;10.57;4.32;;;14.00;99.90;;;;;;5079678;28;20016;-62
2021/06/05 05:51:30;;;;;;;9.13;4.00;;;14.00;99.90;;;;;;5080718;28;20043;-61
2021/06/05 05:53:56;;;;;;;14.73;4.20;;;14.00;99.90;;;;;;5069017;28;20039;-64
2021/06/05 05:56:25;;;;;;;13.32;3.78;;;14.00;99.90;;;;;;5073925;28;20025;-62
2021/06/05 05:58:54;;;;;;;9.63;3.47;;;13.90;99.90;;;;;;5069692;28;20507;-63
2021/06/05 06:01:22;;;;;;;9.73;3.90;;;14.00;99.90;;;;;;5069119;28;20040;-61
2021/06/05 06:03:50;;;;;;;9.93;3.80;;;14.00;99.90;;;;;;5079206;28;20154;-62
2021/06/05 06:06:16;;;;;;;15.80;4.00;;;14.00;99.90;;;;;;5078104;28;20032;-61
2021/06/05 06:08:43;;;;;;;12.20;3.80;;;14.00;99.90;;;;;;5069617;28;20177;-61
2021/06/05 06:11:11;;;;;;;14.63;4.00;;;14.10;99.90;;;;;;5077152;28;20033;-61
2021/06/05 06:13:38;;;;;;;10.00;3.72;;;14.10;99.90;;;;;;5072775;28;20462;-62
2021/06/05 06:16:05;;;;;;;12.00;3.90;;;14.10;99.90;;;;;;5071148;28;20025;-61
2021/06/05 06:18:31;;;;;;;11.98;3.95;;;14.10;99.90;;;;;;5072997;28;20071;-61
2021/06/05 06:20:57;;;;;;;10.32;3.88;;;14.20;99.90;;;;;;5065624;28;20128;-61
2021/06/05 06:23:26;;;;;;;18.63;4.10;;;14.20;99.90;;;;;;5080783;28;20039;-63
2021/06/05 06:25:53;;;;;;;8.63;3.45;;;14.30;99.90;;;;;;5080647;28;20110;-61
2021/06/05 06:28:24;;;;;;;8.70;3.60;;;14.40;99.90;;;;;;5069511;28;20041;-62
2021/06/05 06:30:51;;;;;;;12.45;4.15;;;14.40;99.90;;;;;;5072223;28;20028;-60
2021/06/05 06:33:18;;;;;;;10.60;3.42;;;14.50;99.90;;;;;;5069763;28;20028;-61
2021/06/05 06:35:44;;;;;;;7.53;3.17;;;14.50;99.90;;;;;;5068363;28;20111;-62
2021/06/05 06:38:14;;;;;;;10.98;3.85;;;14.40;99.90;;;;;;5072421;28;20107;-62
2021/06/05 06:40:41;;;;;;;9.95;3.90;;;14.50;99.90;;;;;;5075905;28;20041;-61
2021/06/05 06:43:10;;;;;;;15.90;3.95;;;14.60;99.90;;;;;;5076291;28;20058;-62
2021/06/05 06:45:36;;;;;;;14.63;4.45;;;14.70;99.90;;;;;;5079883;28;20990;-62
2021/06/05 06:48:01;;;;;;;11.35;3.13;;;14.80;99.90;;;;;;5079936;28;20143;-61
2021/06/05 06:50:29;;;;;;;6.20;3.05;;;14.80;99.90;;;;;;5070968;28;20035;-61
2021/06/05 06:52:55;;;;;;;11.60;3.50;;;14.90;99.90;;;;;;5069334;28;20029;-61
2021/06/05 06:55:23;;;;;;;16.08;4.40;;;15.00;99.90;;;;;;5073126;28;20032;-61
2021/06/05 06:57:49;;;;;;;9.75;3.30;;;15.00;99.90;;;;;;5072716;28;20032;-61
2021/06/05 07:00:21;;;;;;;11.95;3.40;;;15.20;99.90;;;;;;5071457;28;20032;-63
2021/06/05 07:02:47;;;;;;;21.88;3.63;;;15.20;99.90;;;;;;5082189;28;20131;-62
2021/06/05 07:05:13;;;;;;;11.50;3.88;;;15.30;99.90;;;;;;5069964;28;20506;-62
2021/06/05 07:07:38;;;;;;;12.30;3.70;;;15.40;99.90;;;;;;5071250;28;20090;-61
2021/06/05 07:10:06;;;;;;;14.38;3.72;;;15.40;99.90;;;;;;5070560;28;20767;-61
2021/06/05 07:12:32;;;;;;;9.73;3.55;;;15.50;99.90;;;;;;5082759;28;20044;-59
2021/06/05 07:14:58;;;;;;;16.40;3.65;;;15.50;99.90;;;;;;5070002;28;20409;-61
2021/06/05 07:17:24;;;;;;;6.53;3.28;;;15.50;99.90;;;;;;5073077;28;20052;-60
2021/06/05 07:19:49;;;;;;;9.63;3.53;;;15.50;99.90;;;;;;5073287;28;20028;-61
2021/06/05 07:22:15;;;;;;;10.65;3.45;;;15.60;99.90;;;;;;5084162;28;20052;-62
2021/06/05 07:24:41;;;;;;;15.68;3.38;;;15.70;99.90;;;;;;5076360;28;20085;-61
2021/06/05 07:27:08;;;;;;;9.50;3.28;;;15.60;99.90;;;;;;5081193;28;20469;-60
2021/06/05 07:29:34;;;;;;;11.05;3.72;;;15.70;99.90;;;;;;5074206;28;20048;-62
2021/06/05 07:32:02;;;;;;;8.02;3.50;;;15.60;99.90;;;;;;5080495;28;20081;-61
2021/06/05 07:34:28;;;;;;;8.57;2.92;;;15.60;99.90;;;;;;5073299;28;20035;-62
2021/06/05 07:36:56;;;;;;;12.00;3.70;;;15.60;99.90;;;;;;5076071;28;20029;-61
2021/06/05 07:39:25;;;;;;;10.80;3.20;;;15.70;99.90;;;;;;5073646;28;20028;-62
2021/06/05 07:41:52;;;;;;;12.40;3.03;;;15.80;99.90;;;;;;5075169;28;20112;-61
2021/06/05 07:44:20;;;;;;;9.45;3.50;;;16.00;99.90;;;;;;5084824;28;20035;-61
2021/06/05 07:46:56;;;;;;;7.25;3.33;;;16.30;99.90;;;;;;5087036;28;20496;-62
2021/06/05 07:49:23;;;;;;;12.05;3.50;;;16.40;99.90;;;;;;5074144;28;20028;-62
2021/06/05 07:51:49;;;;;;;12.68;3.20;;;16.70;99.90;;;;;;5082198;28;20452;-61
2021/06/05 07:54:15;;;;;;;13.20;3.20;;;16.90;99.90;;;;;;5076149;28;20099;-63
2021/06/05 07:56:41;;;;;;;11.18;3.55;;;17.10;99.90;;;;;;5074362;28;20558;-62
2021/06/05 07:59:07;;;;;;;9.38;2.90;;;17.20;99.90;;;;;;5072795;28;20115;-62
2021/06/05 08:01:32;;;;;;;14.32;3.33;;;17.30;99.90;;;;;;5074406;28;20119;-61
2021/06/05 08:03:58;;;;;;;6.78;2.78;;;17.70;99.90;;;;;;5075847;28;20064;-61
2021/06/05 08:06:24;;;;;;;8.10;2.65;;;18.20;99.90;;;;;;5087928;28;20043;-62
2021/06/05 08:08:50;;;;;;;11.45;2.63;;;18.50;99.90;;;;;;5077987;28;20102;-60
2021/06/05 08:11:17;;;;;;;14.10;2.90;;;18.70;99.90;;;;;;5079965;28;20124;-61
2021/06/05 08:13:43;;;;;;;10.23;3.05;;;19.10;99.90;;;;;;5067434;28;20036;-59
2021/06/05 08:16:10;;;;;;;8.02;2.50;;;19.30;99.90;;;;;;5074609;28;20024;-62
2021/06/05 08:18:36;;;;;;;6.55;2.55;;;19.30;99.90;;;;;;5075720;28;20044;-62
2021/06/05 08:21:07;;;;;;;8.75;2.47;;;19.20;99.90;;;;;;5072378;28;20032;-61
2021/06/05 08:23:35;;;;;;;14.57;3.45;;;19.00;99.90;;;;;;5070332;28;20107;-65
2021/06/05 08:26:02;;;;;;;7.47;2.30;;;19.00;99.90;;;;;;5066975;28;20032;-61
2021/06/05 08:28:29;;;;;;;11.93;2.65;;;18.90;99.90;;;;;;5086536;28;20101;-62
2021/06/05 08:30:57;;;;;;;9.55;2.60;;;19.00;99.90;;;;;;5073237;28;20028;-61
2021/06/05 08:33:24;;;;;;;7.78;2.25;;;19.10;99.90;;;;;;5080229;28;20115;-64
2021/06/05 08:35:50;;;;;;;5.38;1.75;;;19.40;99.90;;;;;;5059159;28;20424;-61
2021/06/05 08:38:19;;;;;;;8.50;2.30;;;19.40;99.90;;;;;;5073814;28;20070;-62
2021/06/05 08:41:09;;;;;;;6.25;2.30;;;19.60;99.90;;;;;;5058000;28;20031;-61
2021/06/05 08:43:41;;;;;;;6.60;2.20;;;19.60;99.90;;;;;;5078923;28;20066;-61
2021/06/05 08:46:11;;;;;;;5.38;2.28;;;19.50;99.90;;;;;;5078061;28;20032;-61
2021/06/05 08:48:37;;;;;;;4.57;2.42;;;19.40;99.90;;;;;;5075133;28;20103;-62
2021/06/05 08:51:28;;;;;;;7.38;2.88;;;19.50;99.90;;;;;;5073261;28;20032;-62
2021/06/05 08:54:02;;;;;;;5.32;2.70;;;19.50;99.90;;;;;;5083075;28;20036;-61
2021/06/05 08:56:32;;;;;;;8.63;3.22;;;19.80;99.90;;;;;;5067709;28;20055;-61
2021/06/05 08:59:01;;;;;;;7.03;2.67;;;20.20;99.90;;;;;;5074675;28;20122;-61
2021/06/05 09:01:47;;;;;;;9.60;2.80;;;20.50;99.90;;;;;;5074560;28;20386;-63
2021/06/05 09:04:20;;;;;;;7.90;2.90;;;20.70;99.90;;;;;;5073829;28;20028;-61
2021/06/05 09:06:54;;;;;;;9.48;4.88;;;20.50;99.90;;;;;;5069855;28;20035;-63
2021/06/05 09:09:25;;;;;;;6.03;3.28;;;20.60;99.90;;;;;;5068238;28;20040;-62
2021/06/05 09:11:52;;;;;;;13.23;4.20;;;20.50;99.90;;;;;;5066350;28;20046;-61
2021/06/05 09:14:18;;;;;;;12.07;3.58;;;20.50;99.90;;;;;;5070326;28;20092;-62
2021/06/05 09:16:47;;;;;;;7.15;3.40;;;20.80;99.90;;;;;;5068059;28;20095;-62
2021/06/05 09:19:21;;;;;;;18.88;4.90;;;20.90;99.90;;;;;;5063453;28;20455;-62
2021/06/05 09:21:50;;;;;;;14.98;3.92;;;21.10;99.90;;;;;;5067696;28;20119;-63
2021/06/05 09:24:16;;;;;;;10.40;4.00;;;21.30;99.90;;;;;;5062095;28;20478;-63
2021/06/05 09:26:59;;;;;;;14.13;3.58;;;21.40;99.90;;;;;;5067247;28;20104;-60
2021/06/05 09:29:25;;;;;;;7.95;3.22;;;21.50;99.90;;;;;;5070662;28;20044;-60
2021/06/05 09:31:59;;;;;;;11.50;4.50;;;21.50;99.90;;;;;;5064390;28;20036;-61
2021/06/05 09:34:37;;;;;;;9.07;3.70;;;21.70;99.90;;;;;;5066925;28;20033;-62
2021/06/05 09:37:04;;;;;;;11.05;3.90;;;21.70;99.90;;;;;;5068089;28;20051;-60
2021/06/05 09:40:05;;;;;;;6.55;3.53;;;21.60;99.90;;;;;;5071498;28;20032;-60
2021/06/05 09:42:39;;;;;;;8.48;3.55;;;21.70;99.90;;;;;;5042758;28;20041;-60
2021/06/05 09:45:09;;;;;;;7.75;3.15;;;22.00;99.90;;;;;;5075054;28;20458;-60
2021/06/05 09:47:35;;;;;;;7.47;2.90;;;22.00;99.90;;;;;;5073539;28;20035;-59
2021/06/05 09:50:23;;;;;;;13.23;3.50;;;22.00;99.90;;;;;;5066271;28;20033;-62
2021/06/05 09:52:49;;;;;;;13.43;3.55;;;22.30;99.90;;;;;;5062247;28;20048;-59
2021/06/05 09:55:15;;;;;;;8.02;3.35;;;22.30;99.90;;;;;;5071070;28;20024;-60
2021/06/05 09:57:44;;;;;;;9.10;3.92;;;22.60;99.90;;;;;;5071835;28;20028;-61
2021/06/05 10:00:27;;;;;;;14.25;3.50;;;22.60;99.90;;;;;;5068750;28;20059;-59
2021/06/05 10:03:15;;;;;;;10.43;3.58;;;22.70;99.90;;;;;;5071020;28;20029;-61
2021/06/05 10:05:43;;;;;;;12.85;3.83;;;22.60;99.90;;;;;;5068923;28;20039;-61
2021/06/05 10:08:31;;;;;;;10.65;3.03;;;22.60;99.90;;;;;;5072162;28;20031;-59
2021/06/05 10:11:05;;;;;;;13.50;3.08;;;22.70;99.90;;;;;;5068498;28;20059;-61
2021/06/05 10:13:36;;;;;;;6.65;2.67;;;22.70;99.90;;;;;;5070465;28;20116;-60
2021/06/05 10:16:06;;;;;;;5.93;2.70;;;22.60;99.90;;;;;;5056174;28;20399;-60
2021/06/05 10:18:45;;;;;;;8.50;3.05;;;22.60;99.90;;;;;;5069694;28;20052;-61
2021/06/05 10:21:30;;;;;;;11.27;4.10;;;22.60;99.90;;;;;;5081505;28;20039;-61
2021/06/05 10:24:25;;;;;;;8.50;3.00;;;22.60;99.90;;;;;;5079258;28;20073;-59
2021/06/05 10:26:52;;;;;;;5.68;2.60;;;22.80;99.90;;;;;;5081134;28;20028;-60
2021/06/05 10:29:27;;;;;;;7.28;2.63;;;22.90;99.90;;;;;;5073278;28;20040;-60
2021/06/05 10:31:54;;;;;;;;;;;23.00;99.90;;;;;;5068525;28;20504;-60
2021/06/05 10:34:34;;;;;;;7.72;2.47;;;23.00;99.90;;;;;;5068643;28;20307;-61
2021/06/05 10:37:00;;;;;;;8.32;2.88;;;23.00;99.90;;;;;;5074933;28;20746;-60
2021/06/05 10:39:38;;;;;;;7.57;2.80;;;23.00;99.90;;;;;;5072614;28;20067;-59
2021/06/05 10:42:18;;;;;;;8.85;2.65;;;23.30;99.90;;;;;;5074119;28;20028;-60
2021/06/05 10:44:44;;;;;;;8.60;2.30;;;23.10;99.90;;;;;;5073443;28;20360;-60
2021/06/05 10:47:19;;;;;;;11.40;2.90;;;23.30;99.90;;;;;;5082364;28;20035;-58
2021/06/05 10:49:54;;;;;;;8.00;2.45;;;23.40;99.90;;;;;;5075860;28;20046;-60
2021/06/05 10:52:46;;;;;;;10.50;2.85;;;23.70;99.90;;;;;;5059100;28;20467;-62
2021/06/05 10:55:41;;;;;;;6.07;2.70;;;23.60;99.90;;;;;;5080551;28;20028;-62
2021/06/05 10:58:07;;;;;;;9.15;3.08;;;23.70;99.90;;;;;;5075844;28;20036;-60
2021/06/05 11:00:44;;;;;;;5.53;2.80;;;23.50;99.90;;;;;;5071412;28;20025;-61
2021/06/05 11:03:22;;;;;;;12.93;3.03;;;23.70;99.90;;;;;;5071736;28;20029;-62
2021/06/05 11:06:04;;;;;;;8.65;2.90;;;23.60;99.90;;;;;;5070134;28;20055;-61
2021/06/05 11:08:35;;;;;;;9.25;2.60;;;23.50;99.90;;;;;;5077092;28;20375;-61
2021/06/05 11:11:01;;;;;;;5.65;2.80;;;23.30;99.90;;;;;;5073284;28;20031;-60
2021/06/05 11:13:51;;;;;;;8.98;2.65;;;23.40;99.90;;;;;;5073324;28;20115;-60
2021/06/05 11:16:38;;;;;;;6.07;2.92;;;23.30;99.90;;;;;;5061260;28;20064;-60
2021/06/05 11:19:04;;;;;;;5.88;2.58;;;23.50;99.90;;;;;;5073696;28;20124;-61
2021/06/05 11:21:30;;;;;;;7.20;2.22;;;23.80;99.90;;;;;;5069010;28;20440;-61
2021/06/05 11:23:55;;;;;;;10.68;2.85;;;23.60;99.90;;;;;;5070904;28;20035;-60
2021/06/05 11:26:39;;;;;;;7.72;2.67;;;23.80;99.90;;;;;;5076144;28;20115;-61
2021/06/05 11:29:20;;;;;;;8.20;2.90;;;23.80;99.90;;;;;;5070829;28;20071;-62
2021/06/05 11:32:17;;;;;;;8.45;3.55;;;23.80;99.90;;;;;;5071319;28;20059;-62
2021/06/05 11:34:43;;;;;;;10.70;4.60;;;23.60;99.90;;;;;;5069843;28;20028;-61
2021/06/05 11:37:15;;;;;;;9.07;3.05;;;23.40;99.90;;;;;;5080803;28;20489;-62
2021/06/05 11:39:58;;;;;;;8.43;2.80;;;23.30;99.90;;;;;;5072898;28;20028;-61
2021/06/05 11:42:23;;;;;;;7.18;2.65;;;23.40;99.90;;;;;;5072239;28;20036;-59
2021/06/05 11:44:56;;;;;;;9.88;2.45;;;23.40;99.90;;;;;;5072294;28;20478;-61
2021/06/05 11:47:22;;;;;;;5.95;1.98;;;23.50;99.90;;;;;;5073697;28;20040;-62
2021/06/05 11:50:02;;;;;;;3.22;1.60;;;23.40;99.90;;;;;;5073178;28;20027;-61
2021/06/05 11:52:33;;;;;;;6.22;2.38;;;23.40;99.90;;;;;;5072468;28;20474;-62
2021/06/05 11:55:27;;;;;;;7.60;2.60;;;23.40;99.90;;;;;;5072469;28;20033;-61
2021/06/05 11:57:52;;;;;;;16.73;3.97;;;23.70;99.90;;;;;;5067881;28;20029;-61
2021/06/05 12:00:21;;;;;;;11.25;5.68;;;23.70;99.90;;;;;;5069373;28;20082;-62
2021/06/05 12:02:55;;;;;;;9.23;2.70;;;23.60;99.90;;;;;;5070962;28;20033;-61
2021/06/05 12:05:41;;;;;;;9.13;2.80;;;23.40;99.90;;;;;;5073911;28;20040;-60
2021/06/05 12:08:22;;;;;;;7.40;2.08;;;23.30;99.90;;;;;;5073224;28;20040;-60
2021/06/05 12:10:48;;;;;;;5.88;1.88;;;23.30;99.90;;;;;;5067510;28;20025;-61
2021/06/05 12:13:38;;;;;;;4.72;1.80;;;23.40;99.90;;;;;;5072630;28;20040;-62
2021/06/05 12:16:14;;;;;;;10.90;2.70;;;23.20;99.90;;;;;;5070477;28;20024;-62
2021/06/05 12:18:40;;;;;;;5.35;2.08;;;23.30;99.90;;;;;;5070640;28;20037;-62
2021/06/05 12:21:27;;;;;;;12.80;2.97;;;23.30;99.90;;;;;;5076144;28;20456;-61
2021/06/05 12:23:53;;;;;;;5.53;2.47;;;23.50;99.90;;;;;;5062121;28;20498;-63
2021/06/05 12:26:26;;;;;;;4.30;1.90;;;23.60;99.90;;;;;;5071375;28;20104;-61
2021/06/05 12:29:11;;;;;;;5.13;1.63;;;23.50;99.90;;;;;;5059419;28;20059;-61
2021/06/05 12:31:43;;;;;;;6.38;2.15;;;23.40;99.90;;;;;;5070195;28;20067;-62
2021/06/05 12:34:26;;;;;;;7.00;2.47;;;23.60;99.90;;;;;;5072882;28;20428;-62
2021/06/05 12:37:02;;;;;;;7.50;1.80;;;23.70;99.90;;;;;;5062124;28;20028;-62
2021/06/05 12:39:31;;;;;;;7.53;1.98;;;23.90;99.90;;;;;;5077086;28;20028;-63
2021/06/05 12:41:57;;;;;;;4.93;2.00;;;24.10;99.90;;;;;;5074988;28;20063;-62
2021/06/05 12:44:35;;;;;;;4.45;2.13;;;24.20;99.90;;;;;;5071700;28;20063;-61
2021/06/05 12:47:06;;;;;;;6.35;2.30;;;23.70;99.90;;;;;;5065808;28;20021;-61
2021/06/05 12:49:35;;;;;;;5.55;2.83;;;23.50;99.90;;;;;;5064744;28;20390;-61
2021/06/05 12:52:05;;;;;;;4.88;2.13;;;23.60;99.90;;;;;;5066856;28;20045;-61
2021/06/05 12:54:36;;;;;;;6.18;2.42;;;23.70;99.90;;;;;;5062514;28;20486;-59
2021/06/05 12:57:37;;;;;;;7.20;3.17;;;23.30;99.90;;;;;;5063788;28;20028;-60
2021/06/05 13:00:22;;;;;;;8.82;2.20;;;23.40;99.90;;;;;;5064994;28;20029;-60